createdAt,value
2023-05-21T00:00:43.005Z,14.30
2023-05-21T00:03:14.014Z,14.30
2023-05-21T00:05:42.704Z,14.20
2023-05-21T00:08:10.936Z,14.20
2023-05-21T00:10:39.002Z,14.20
2023-05-21T00:13:07.132Z,14.10
2023-05-21T00:15:35.462Z,14.10
2023-05-21T00:18:05.453Z,14.00
2023-05-21T00:20:33.765Z,14.00
2023-05-21T00:23:03.939Z,14.00
2023-05-21T00:25:32.206Z,14.00
2023-05-21T00:28:00.238Z,14.00
2023-05-21T00:30:28.266Z,14.00
2023-05-21T00:32:59.089Z,14.00
2023-05-21T00:35:28.697Z,13.90
2023-05-21T00:37:57.332Z,13.90
2023-05-21T00:40:25.813Z,13.90
2023-05-21T00:42:57.304Z,13.90
2023-05-21T00:45:25.680Z,13.90
2023-05-21T00:47:55.625Z,13.90
2023-05-21T00:50:24.377Z,13.90
2023-05-21T00:52:54.468Z,13.90
2023-05-21T00:55:22.928Z,13.80
2023-05-21T00:57:50.943Z,13.80
2023-05-21T01:00:19.060Z,13.80
2023-05-21T01:02:48.000Z,13.80
2023-05-21T01:05:16.388Z,13.80
2023-05-21T01:07:44.627Z,13.80
2023-05-21T01:10:14.279Z,13.90
2023-05-21T01:12:45.335Z,13.80
2023-05-21T01:15:14.219Z,13.80
2023-05-21T01:17:42.576Z,13.80
2023-05-21T01:20:12.216Z,13.80
2023-05-21T01:22:44.649Z,13.70
2023-05-21T01:25:15.051Z,13.80
2023-05-21T01:27:43.247Z,13.80
2023-05-21T01:30:12.410Z,13.90
2023-05-21T01:32:49.301Z,13.80
2023-05-21T01:35:22.780Z,13.80
2023-05-21T01:37:56.609Z,13.80
2023-05-21T01:40:32.930Z,13.80
2023-05-21T01:43:01.456Z,13.80
2023-05-21T01:45:33.251Z,13.80
2023-05-21T01:48:01.959Z,13.80
2023-05-21T01:50:32.010Z,13.70
2023-05-21T01:53:01.083Z,13.60
2023-05-21T01:55:30.786Z,13.60
2023-05-21T01:58:02.007Z,13.60
2023-05-21T02:00:32.569Z,13.50
2023-05-21T02:03:00.817Z,13.50
2023-05-21T02:05:28.974Z,13.40
2023-05-21T02:07:57.258Z,13.40
2023-05-21T02:10:25.296Z,13.30
2023-05-21T02:12:54.692Z,13.30
2023-05-21T02:15:24.958Z,13.40
2023-05-21T02:17:53.122Z,13.40
2023-05-21T02:20:22.751Z,13.50
2023-05-21T02:22:51.087Z,13.40
2023-05-21T02:25:20.722Z,13.40
2023-05-21T02:27:52.823Z,13.40
2023-05-21T02:30:22.352Z,13.30
2023-05-21T02:32:50.813Z,13.30
2023-05-21T02:35:19.021Z,13.20
2023-05-21T02:37:47.074Z,13.20
2023-05-21T02:40:15.286Z,13.10
2023-05-21T02:42:43.419Z,13.10
2023-05-21T02:45:12.893Z,13.10
2023-05-21T02:47:42.438Z,13.00
2023-05-21T02:50:10.905Z,13.00
2023-05-21T02:52:38.964Z,13.00
2023-05-21T02:55:08.090Z,13.00
2023-05-21T02:57:36.210Z,12.90
2023-05-21T03:00:06.584Z,12.90
2023-05-21T03:02:34.870Z,13.00
2023-05-21T03:05:05.244Z,13.00
2023-05-21T03:07:33.269Z,13.00
2023-05-21T03:10:01.367Z,13.00
2023-05-21T03:12:29.425Z,13.00
2023-05-21T03:14:57.493Z,13.00
2023-05-21T03:17:25.692Z,13.00
2023-05-21T03:19:54.668Z,12.90
2023-05-21T03:22:24.125Z,12.90
2023-05-21T03:24:53.453Z,12.80
2023-05-21T03:27:21.552Z,12.80
2023-05-21T03:29:50.118Z,12.70
2023-05-21T03:32:18.320Z,12.70
2023-05-21T03:34:46.415Z,12.60
2023-05-21T03:37:14.560Z,12.60
2023-05-21T03:39:44.047Z,12.50
2023-05-21T03:42:14.083Z,12.50
2023-05-21T03:44:42.192Z,12.60
2023-05-21T03:47:10.249Z,12.70
2023-05-21T03:49:38.250Z,12.70
2023-05-21T03:52:06.599Z,12.90
2023-05-21T03:54:34.624Z,12.90
2023-05-21T03:57:04.004Z,12.90
2023-05-21T03:59:32.073Z,13.00
2023-05-21T04:02:00.099Z,13.00
2023-05-21T04:04:29.460Z,13.10
2023-05-21T04:06:57.655Z,13.20
2023-05-21T04:09:25.740Z,13.20
2023-05-21T04:11:53.958Z,13.20
2023-05-21T04:14:23.754Z,13.20
2023-05-21T04:16:51.902Z,13.20
2023-05-21T04:19:20.227Z,13.20
2023-05-21T04:21:48.426Z,13.20
2023-05-21T04:24:16.429Z,13.20
2023-05-21T04:26:44.637Z,13.20
2023-05-21T04:29:12.719Z,13.20
2023-05-21T04:31:42.331Z,13.20
2023-05-21T04:34:10.561Z,13.20
2023-05-21T04:36:39.211Z,13.30
2023-05-21T04:39:07.386Z,13.20
2023-05-21T04:41:36.751Z,13.30
2023-05-21T04:44:04.929Z,13.30
2023-05-21T04:46:33.047Z,13.30
2023-05-21T04:49:03.782Z,13.30
2023-05-21T04:51:32.247Z,13.30
2023-05-21T04:54:00.386Z,13.40
2023-05-21T04:56:28.527Z,13.40
2023-05-21T04:58:58.565Z,13.50
2023-05-21T05:01:27.409Z,13.50
2023-05-21T05:03:55.654Z,13.50
2023-05-21T05:06:25.894Z,13.60
2023-05-21T05:08:54.245Z,13.70
2023-05-21T05:11:22.425Z,13.80
2023-05-21T05:13:50.581Z,13.90
2023-05-21T05:16:24.995Z,13.90
2023-05-21T05:18:53.660Z,13.90
2023-05-21T05:21:24.700Z,13.90
2023-05-21T05:23:52.906Z,14.00
2023-05-21T05:26:21.650Z,14.00
2023-05-21T05:28:49.728Z,14.10
2023-05-21T05:31:17.858Z,14.10
2023-05-21T05:33:46.189Z,14.20
2023-05-21T05:36:14.271Z,14.30
2023-05-21T05:38:43.868Z,14.40
2023-05-21T05:41:11.981Z,14.40
2023-05-21T05:43:40.039Z,14.50
2023-05-21T05:46:08.190Z,14.50
2023-05-21T05:48:36.321Z,14.60
2023-05-21T05:51:04.466Z,14.60
2023-05-21T05:53:33.128Z,14.60
2023-05-21T05:56:02.644Z,14.70
2023-05-21T05:58:31.685Z,14.80
2023-05-21T06:00:59.783Z,15.00
2023-05-21T06:03:28.720Z,15.00
2023-05-21T06:05:57.029Z,15.10
2023-05-21T06:08:25.439Z,15.20
2023-05-21T06:10:53.568Z,15.20
2023-05-21T06:13:23.019Z,15.40
2023-05-21T06:15:51.556Z,15.50
2023-05-21T06:18:19.719Z,15.70
2023-05-21T06:20:47.757Z,15.80
2023-05-21T06:23:16.193Z,15.80
2023-05-21T06:25:44.356Z,16.00
2023-05-21T06:28:12.568Z,16.00
2023-05-21T06:30:41.962Z,16.00
2023-05-21T06:33:10.128Z,16.10
2023-05-21T06:35:39.917Z,16.00
2023-05-21T06:38:07.953Z,16.00
2023-05-21T06:40:36.412Z,16.00
2023-05-21T06:43:05.505Z,16.00
2023-05-21T06:45:33.612Z,16.10
2023-05-21T06:48:03.193Z,16.10
2023-05-21T06:50:31.506Z,16.10
2023-05-21T06:52:59.541Z,16.30
2023-05-21T06:55:27.618Z,16.30
2023-05-21T06:57:55.820Z,16.30
2023-05-21T07:00:23.913Z,16.40
2023-05-21T07:02:52.189Z,16.40
2023-05-21T07:05:21.912Z,16.60
2023-05-21T07:07:49.948Z,16.70
2023-05-21T07:10:18.294Z,16.80
2023-05-21T07:12:46.350Z,16.80
2023-05-21T07:15:14.456Z,16.90
2023-05-21T07:17:42.601Z,16.90
2023-05-21T07:20:11.891Z,16.90
2023-05-21T07:22:42.991Z,16.90
2023-05-21T07:25:11.725Z,16.90
2023-05-21T07:27:39.885Z,17.10
2023-05-21T07:30:10.308Z,17.30
2023-05-21T07:32:38.497Z,17.50
2023-05-21T07:35:07.822Z,17.70
2023-05-21T07:37:36.137Z,17.90
2023-05-21T07:40:06.841Z,18.00
2023-05-21T07:42:34.958Z,18.30
2023-05-21T07:45:03.336Z,18.50
2023-05-21T07:47:31.442Z,18.70
2023-05-21T07:49:59.798Z,18.90
2023-05-21T07:52:27.864Z,18.90
2023-05-21T07:54:56.008Z,19.00
2023-05-21T07:57:25.427Z,19.30
2023-05-21T07:59:53.512Z,19.50
2023-05-21T08:02:21.771Z,19.70
2023-05-21T08:04:50.099Z,20.00
2023-05-21T08:07:19.886Z,20.30
2023-05-21T08:09:47.947Z,20.90
2023-05-21T08:12:16.344Z,21.60
2023-05-21T08:14:45.739Z,22.30
2023-05-21T08:17:13.851Z,23.10
2023-05-21T08:19:42.074Z,23.90
2023-05-21T08:22:10.237Z,23.90
2023-05-21T08:24:38.344Z,24.10
2023-05-21T08:27:07.755Z,24.40
2023-05-21T08:29:35.805Z,24.20
2023-05-21T08:32:05.963Z,24.20
2023-05-21T08:34:34.098Z,24.40
2023-05-21T08:37:02.085Z,24.70
2023-05-21T08:39:30.132Z,25.10
2023-05-21T08:42:05.686Z,25.30
2023-05-21T08:44:37.489Z,25.50
2023-05-21T08:47:11.145Z,25.10
2023-05-21T08:49:39.265Z,26.10
2023-05-21T08:52:08.100Z,27.00
2023-05-21T08:54:39.883Z,27.60
2023-05-21T08:57:08.707Z,28.30
2023-05-21T08:59:40.127Z,28.60
2023-05-21T09:02:09.904Z,28.00
2023-05-21T09:04:38.916Z,28.50
2023-05-21T09:07:07.946Z,28.50
2023-05-21T09:09:43.055Z,29.10
2023-05-21T09:12:11.249Z,29.70
2023-05-21T09:14:40.507Z,29.30
2023-05-21T09:17:10.083Z,28.90
2023-05-21T09:19:38.159Z,29.00
2023-05-21T09:22:07.453Z,28.20
2023-05-21T09:24:36.594Z,28.40
2023-05-21T09:27:08.224Z,27.60
2023-05-21T09:29:36.366Z,27.40
2023-05-21T09:32:10.017Z,27.40
2023-05-21T09:34:38.073Z,28.10
2023-05-21T09:37:16.349Z,28.10
2023-05-21T09:39:54.537Z,28.70
2023-05-21T09:42:23.124Z,28.30
2023-05-21T09:44:51.312Z,27.70
2023-05-21T09:47:23.625Z,27.50
2023-05-21T09:49:51.827Z,27.60
2023-05-21T09:52:26.343Z,28.70
2023-05-21T09:54:54.545Z,28.80
2023-05-21T09:57:26.792Z,28.20
2023-05-21T09:59:55.201Z,28.30
2023-05-21T10:02:26.589Z,28.70
2023-05-21T10:04:55.312Z,28.60
2023-05-21T10:07:26.004Z,29.00
2023-05-21T10:09:56.757Z,29.30
2023-05-21T10:12:26.032Z,29.30
2023-05-21T10:15:00.683Z,28.70
2023-05-21T10:17:31.635Z,27.40
2023-05-21T10:20:01.630Z,27.30
2023-05-21T10:22:30.310Z,27.20
2023-05-21T10:24:59.825Z,27.80
2023-05-21T10:27:32.223Z,28.40
2023-05-21T10:30:01.463Z,29.00
2023-05-21T10:32:32.455Z,29.70
2023-05-21T10:35:02.045Z,29.60
2023-05-21T10:37:30.575Z,29.10
2023-05-21T10:39:58.822Z,28.80
2023-05-21T10:43:06.559Z,28.40
2023-05-21T10:45:48.870Z,28.20
2023-05-21T10:48:33.129Z,27.90
2023-05-21T10:51:23.194Z,27.60
2023-05-21T10:54:17.275Z,27.60
2023-05-21T10:56:51.929Z,27.40
2023-05-21T10:59:34.177Z,27.40
2023-05-21T11:02:02.793Z,27.60
2023-05-21T11:04:34.911Z,28.50
2023-05-21T11:07:03.640Z,28.80
2023-05-21T11:09:31.775Z,28.80
2023-05-21T11:12:01.270Z,28.40
2023-05-21T11:14:35.473Z,28.00
2023-05-21T11:17:04.873Z,27.60
2023-05-21T11:19:39.328Z,27.20
2023-05-21T11:22:21.422Z,26.80
2023-05-21T11:24:51.392Z,26.70
2023-05-21T11:27:34.544Z,27.10
2023-05-21T11:30:07.271Z,27.20
2023-05-21T11:32:39.440Z,27.20
2023-05-21T11:35:09.950Z,26.80
2023-05-21T11:37:41.544Z,27.20
2023-05-21T11:40:27.707Z,27.30
2023-05-21T11:42:57.459Z,27.30
2023-05-21T11:45:30.899Z,27.60
2023-05-21T11:47:59.134Z,28.00
2023-05-21T11:50:30.841Z,28.10
2023-05-21T11:53:00.859Z,28.30
2023-05-21T11:55:29.210Z,28.50
2023-05-21T11:57:57.656Z,28.10
2023-05-21T12:00:25.729Z,27.70
2023-05-21T12:02:55.804Z,28.00
2023-05-21T12:05:25.115Z,27.90
2023-05-21T12:07:56.419Z,27.50
2023-05-21T12:10:24.791Z,27.70
2023-05-21T12:12:56.942Z,27.90
2023-05-21T12:15:27.155Z,27.80
2023-05-21T12:17:57.094Z,27.80
2023-05-21T12:20:28.117Z,28.00
2023-05-21T12:22:58.972Z,28.10
2023-05-21T12:25:27.452Z,28.00
2023-05-21T12:27:58.292Z,27.90
2023-05-21T12:30:27.258Z,28.00
2023-05-21T12:32:58.580Z,27.80
2023-05-21T12:35:27.323Z,27.90
2023-05-21T12:37:55.497Z,28.40
2023-05-21T12:40:36.544Z,28.00
2023-05-21T12:43:04.879Z,27.90
2023-05-21T12:45:34.026Z,27.90
2023-05-21T12:48:03.174Z,27.90
2023-05-21T12:50:31.264Z,28.30
2023-05-21T12:53:00.141Z,28.10
2023-05-21T12:55:30.259Z,28.20
2023-05-21T12:58:04.370Z,28.40
2023-05-21T13:00:34.046Z,28.00
2023-05-21T13:03:04.591Z,27.10
2023-05-21T13:05:33.120Z,27.00
2023-05-21T13:08:01.283Z,27.00
2023-05-21T13:10:30.694Z,26.80
2023-05-21T13:12:58.889Z,27.00
2023-05-21T13:15:27.049Z,27.10
2023-05-21T13:17:56.941Z,27.00
2023-05-21T13:20:27.808Z,27.00
2023-05-21T13:22:56.186Z,26.90
2023-05-21T13:25:28.548Z,26.70
2023-05-21T13:27:58.997Z,26.60
2023-05-21T13:30:27.328Z,26.70
2023-05-21T13:32:55.665Z,26.80
2023-05-21T13:35:24.113Z,27.00
2023-05-21T13:37:52.798Z,27.30
2023-05-21T13:40:21.491Z,27.40
2023-05-21T13:42:50.704Z,27.60
2023-05-21T13:45:21.986Z,27.70
2023-05-21T13:47:50.340Z,27.40
2023-05-21T13:50:18.804Z,27.50
2023-05-21T13:52:47.272Z,27.70
2023-05-21T13:55:16.635Z,27.60
2023-05-21T13:57:46.131Z,27.70
2023-05-21T14:00:16.237Z,27.70
2023-05-21T14:02:46.169Z,27.70
2023-05-21T14:05:14.650Z,27.80
2023-05-21T14:07:43.210Z,27.80
2023-05-21T14:10:12.410Z,27.90
2023-05-21T14:12:41.017Z,27.80
2023-05-21T14:15:10.162Z,27.80
2023-05-21T14:17:40.514Z,27.60
2023-05-21T14:20:11.894Z,27.40
2023-05-21T14:22:40.093Z,27.30
2023-05-21T14:25:08.905Z,27.20
2023-05-21T14:27:38.404Z,27.30
2023-05-21T14:30:08.012Z,27.00
2023-05-21T14:32:36.283Z,27.20
2023-05-21T14:35:05.374Z,27.10
2023-05-21T14:37:34.917Z,27.20
2023-05-21T14:40:03.217Z,27.30
2023-05-21T14:42:32.075Z,27.30
2023-05-21T14:45:16.800Z,27.40
2023-05-21T14:47:47.719Z,27.30
2023-05-21T14:50:17.632Z,27.10
2023-05-21T14:52:47.373Z,26.90
2023-05-21T14:55:16.949Z,26.80
2023-05-21T14:57:45.418Z,26.70
2023-05-21T15:00:14.432Z,26.70
2023-05-21T15:02:42.689Z,26.70
2023-05-21T15:05:11.056Z,26.60
2023-05-21T15:07:39.202Z,26.60
2023-05-21T15:10:10.585Z,26.70
2023-05-21T15:12:38.742Z,26.80
2023-05-21T15:15:08.082Z,26.80
2023-05-21T15:17:36.350Z,26.80
2023-05-21T15:20:06.201Z,26.60
2023-05-21T15:22:34.975Z,26.50
2023-05-21T15:25:03.588Z,26.40
2023-05-21T15:27:33.185Z,26.30
2023-05-21T15:30:01.584Z,26.30
2023-05-21T15:32:29.766Z,26.10
2023-05-21T15:34:58.081Z,26.20
2023-05-21T15:37:26.490Z,26.20
2023-05-21T15:39:54.488Z,26.20
2023-05-21T15:42:22.799Z,26.10
2023-05-21T15:44:52.335Z,26.10
2023-05-21T15:47:21.036Z,26.10
2023-05-21T15:49:49.094Z,26.00
2023-05-21T15:52:17.660Z,26.00
2023-05-21T15:54:45.746Z,25.90
2023-05-21T15:57:13.884Z,25.90
2023-05-21T15:59:41.943Z,25.90
2023-05-21T16:02:11.361Z,25.80
2023-05-21T16:04:40.032Z,25.70
2023-05-21T16:07:08.112Z,25.70
2023-05-21T16:09:37.680Z,25.70
2023-05-21T16:12:06.289Z,25.70
2023-05-21T16:14:34.383Z,25.60
2023-05-21T16:17:03.163Z,25.60
2023-05-21T16:19:33.229Z,25.60
2023-05-21T16:22:01.977Z,25.40
2023-05-21T16:24:30.258Z,25.30
2023-05-21T16:26:58.410Z,25.20
2023-05-21T16:29:27.111Z,25.20
2023-05-21T16:31:55.279Z,25.00
2023-05-21T16:34:23.414Z,25.00
2023-05-21T16:36:52.877Z,25.00
2023-05-21T16:39:21.088Z,24.90
2023-05-21T16:41:49.249Z,24.90
2023-05-21T16:44:17.632Z,24.80
2023-05-21T16:46:45.809Z,24.70
2023-05-21T16:49:13.966Z,24.70
2023-05-21T16:51:42.009Z,24.60
2023-05-21T16:54:11.902Z,24.50
2023-05-21T16:56:39.916Z,24.50
2023-05-21T16:59:08.093Z,24.40
2023-05-21T17:01:36.366Z,24.30
2023-05-21T17:04:04.719Z,24.20
2023-05-21T17:06:33.899Z,24.20
2023-05-21T17:09:02.475Z,24.20
2023-05-21T17:11:37.328Z,24.10
2023-05-21T17:14:05.487Z,24.00
2023-05-21T17:16:33.719Z,23.90
2023-05-21T17:19:02.041Z,23.70
2023-05-21T17:21:32.293Z,23.60
2023-05-21T17:24:00.525Z,23.50
2023-05-21T17:26:28.928Z,23.40
2023-05-21T17:29:01.120Z,23.20
2023-05-21T17:31:32.046Z,23.10
2023-05-21T17:34:01.179Z,23.10
2023-05-21T17:36:29.334Z,23.00
2023-05-21T17:38:57.713Z,22.90
2023-05-21T17:41:27.199Z,22.80
2023-05-21T17:43:55.494Z,22.70
2023-05-21T17:46:25.010Z,22.70
2023-05-21T17:48:53.421Z,22.60
2023-05-21T17:51:21.753Z,22.50
2023-05-21T17:53:50.041Z,22.40
2023-05-21T17:56:18.391Z,22.30
2023-05-21T17:58:46.997Z,22.30
2023-05-21T18:01:16.088Z,22.20
2023-05-21T18:03:45.809Z,22.20
2023-05-21T18:06:14.083Z,22.10
2023-05-21T18:08:43.124Z,22.00
2023-05-21T18:11:11.430Z,21.90
2023-05-21T18:13:39.584Z,21.80
2023-05-21T18:16:07.820Z,21.70
2023-05-21T18:18:36.077Z,21.60
2023-05-21T18:21:05.694Z,21.60
2023-05-21T18:23:34.156Z,21.60
2023-05-21T18:26:03.038Z,21.50
2023-05-21T18:28:33.312Z,21.40
2023-05-21T18:31:03.750Z,21.40
2023-05-21T18:33:32.459Z,21.30
2023-05-21T18:36:00.837Z,21.20
2023-05-21T18:38:31.189Z,21.00
2023-05-21T18:40:59.592Z,21.00
2023-05-21T18:43:27.717Z,20.80
2023-05-21T18:45:56.182Z,20.80
2023-05-21T18:48:24.514Z,20.70
2023-05-21T18:50:53.236Z,20.60
2023-05-21T18:53:21.908Z,20.60
2023-05-21T18:55:51.564Z,20.50
2023-05-21T18:58:19.876Z,20.40
2023-05-21T19:00:48.008Z,20.40
2023-05-21T19:03:16.407Z,20.40
2023-05-21T19:05:44.566Z,20.40
2023-05-21T19:08:13.297Z,20.30
2023-05-21T19:10:41.700Z,20.20
2023-05-21T19:13:11.765Z,20.10
2023-05-21T19:15:40.078Z,20.00
2023-05-21T19:18:08.620Z,20.00
2023-05-21T19:20:37.801Z,19.90
2023-05-21T19:23:06.265Z,19.90
2023-05-21T19:25:34.557Z,19.80
2023-05-21T19:28:02.763Z,19.80
2023-05-21T19:30:34.954Z,19.70
2023-05-21T19:33:03.439Z,19.70
2023-05-21T19:35:31.675Z,19.70
2023-05-21T19:38:02.428Z,19.60
2023-05-21T19:40:32.515Z,19.50
2023-05-21T19:43:00.666Z,19.50
2023-05-21T19:45:28.813Z,19.60
2023-05-21T19:47:59.903Z,19.60
2023-05-21T19:50:28.873Z,19.50
2023-05-21T19:52:58.253Z,19.50
2023-05-21T19:55:26.610Z,19.40
2023-05-21T19:57:54.743Z,19.30
2023-05-21T20:00:22.997Z,19.20
2023-05-21T20:02:51.605Z,19.20
2023-05-21T20:05:21.479Z,19.10
2023-05-21T20:07:49.510Z,19.10
2023-05-21T20:10:17.634Z,19.10
2023-05-21T20:12:46.095Z,19.00
2023-05-21T20:15:14.578Z,19.00
2023-05-21T20:17:44.182Z,18.90
2023-05-21T20:20:13.369Z,18.90
2023-05-21T20:22:42.713Z,18.90
2023-05-21T20:25:11.021Z,18.80
2023-05-21T20:27:39.746Z,18.70
2023-05-21T20:30:09.975Z,18.70
2023-05-21T20:32:38.384Z,18.60
2023-05-21T20:35:09.134Z,18.60
2023-05-21T20:37:37.325Z,18.60
2023-05-21T20:40:08.018Z,18.50
2023-05-21T20:42:36.636Z,18.50
2023-05-21T20:45:06.029Z,18.40
2023-05-21T20:47:34.287Z,18.40
2023-05-21T20:50:03.652Z,18.40
2023-05-21T20:52:32.231Z,18.30
2023-05-21T20:55:00.693Z,18.30
2023-05-21T20:57:30.138Z,18.30
2023-05-21T20:59:58.190Z,18.20
2023-05-21T21:02:26.977Z,18.20
2023-05-21T21:04:56.300Z,18.10
2023-05-21T21:07:24.458Z,18.10
2023-05-21T21:09:52.605Z,18.10
2023-05-21T21:12:26.403Z,18.00
2023-05-21T21:14:56.754Z,18.00
2023-05-21T21:17:24.915Z,18.00
2023-05-21T21:19:53.102Z,18.00
2023-05-21T21:22:21.560Z,17.90
2023-05-21T21:24:49.742Z,17.80
2023-05-21T21:27:17.875Z,17.80
2023-05-21T21:29:46.514Z,17.70
2023-05-21T21:32:16.062Z,17.70
2023-05-21T21:34:44.109Z,17.60
2023-05-21T21:37:13.337Z,17.60
2023-05-21T21:39:41.712Z,17.60
2023-05-21T21:42:09.891Z,17.50
2023-05-21T21:44:39.224Z,17.50
2023-05-21T21:47:07.651Z,17.40
2023-05-21T21:49:37.175Z,17.50
2023-05-21T21:52:07.113Z,17.40
2023-05-21T21:54:35.652Z,17.30
2023-05-21T21:57:03.931Z,17.30
2023-05-21T21:59:32.118Z,17.30
2023-05-21T22:02:00.434Z,17.30
2023-05-21T22:04:28.546Z,17.30
2023-05-21T22:06:58.008Z,17.30
2023-05-21T22:09:26.174Z,17.30
2023-05-21T22:11:54.399Z,17.30
2023-05-21T22:14:22.447Z,17.20
2023-05-21T22:16:53.136Z,17.10
2023-05-21T22:19:22.739Z,17.10
2023-05-21T22:21:50.925Z,17.10
2023-05-21T22:24:31.445Z,17.10
2023-05-21T22:27:01.286Z,17.10
2023-05-21T22:29:29.394Z,17.00
2023-05-21T22:31:57.671Z,16.90
2023-05-21T22:34:25.725Z,16.80
2023-05-21T22:36:53.967Z,16.80
2023-05-21T22:39:23.438Z,16.70
2023-05-21T22:41:51.555Z,16.60
2023-05-21T22:44:20.126Z,16.50
2023-05-21T22:46:49.298Z,16.50
2023-05-21T22:49:17.595Z,16.50
2023-05-21T22:51:46.369Z,16.40
2023-05-21T22:54:14.456Z,16.40
2023-05-21T22:56:44.357Z,16.30
2023-05-21T22:59:12.434Z,16.30
2023-05-21T23:01:40.711Z,16.30
2023-05-21T23:04:08.829Z,16.30
2023-05-21T23:06:37.037Z,16.20
2023-05-21T23:09:05.290Z,16.20
2023-05-21T23:11:33.461Z,16.10
2023-05-21T23:14:03.056Z,16.10
2023-05-21T23:16:32.287Z,16.10
2023-05-21T23:19:01.237Z,16.00
2023-05-21T23:21:29.652Z,16.00
2023-05-21T23:23:57.772Z,15.90
2023-05-21T23:26:26.849Z,15.90
2023-05-21T23:28:54.909Z,15.90
2023-05-21T23:31:24.609Z,15.90
2023-05-21T23:33:53.039Z,15.80
2023-05-21T23:36:21.401Z,15.80
2023-05-21T23:38:49.519Z,15.70
2023-05-21T23:41:17.625Z,15.60
2023-05-21T23:43:45.715Z,15.50
2023-05-21T23:46:13.805Z,15.50
2023-05-21T23:48:43.337Z,15.50
2023-05-21T23:51:11.457Z,15.50
2023-05-21T23:53:39.550Z,15.40
2023-05-21T23:56:08.145Z,15.40
2023-05-21T23:58:36.340Z,15.40
